createdAt,value
2023-04-28T00:01:26.589Z,52198.33
2023-04-28T00:03:59.366Z,52204.36
2023-04-28T00:06:31.171Z,52198.73
2023-04-28T00:09:01.087Z,52198.33
2023-04-28T00:11:32.534Z,52209.18
2023-04-28T00:14:03.953Z,52193.10
2023-04-28T00:16:35.584Z,52205.96
2023-04-28T00:19:08.002Z,52205.16
2023-04-28T00:21:39.637Z,52200.34
2023-04-28T00:24:11.587Z,52207.57
2023-04-28T00:26:43.132Z,52203.55
2023-04-28T00:29:14.980Z,52209.98
2023-04-28T00:31:47.157Z,52205.16
2023-04-28T00:34:18.731Z,52197.52
2023-04-28T00:36:50.883Z,52188.28
2023-04-28T00:39:21.270Z,52209.98
2023-04-28T00:41:52.886Z,52201.14
2023-04-28T00:44:24.347Z,52194.71
2023-04-28T00:46:56.536Z,52209.98
2023-04-28T00:49:28.314Z,52199.54
2023-04-28T00:52:03.851Z,52220.43
2023-04-28T00:54:35.935Z,52223.64
2023-04-28T00:57:07.500Z,52196.72
2023-04-28T00:59:37.449Z,52216.41
2023-04-28T01:02:09.051Z,52210.79
2023-04-28T01:04:40.610Z,52206.77
2023-04-28T01:07:10.454Z,52199.53
2023-04-28T01:09:42.036Z,52211.19
2023-04-28T01:12:13.479Z,52211.59
2023-04-28T01:14:49.217Z,52224.05
2023-04-28T01:17:20.806Z,52218.82
2023-04-28T01:19:53.340Z,52205.16
2023-04-28T01:22:25.063Z,52218.43
2023-04-28T01:24:54.921Z,52208.77
2023-04-28T01:27:28.323Z,52211.19
2023-04-28T01:29:59.948Z,52191.50
2023-04-28T01:32:29.826Z,52209.98
2023-04-28T01:35:01.505Z,52224.45
2023-04-28T01:37:33.166Z,52202.35
2023-04-28T01:40:06.221Z,52210.79
2023-04-28T01:42:37.661Z,52210.39
2023-04-28T01:45:11.146Z,52208.38
2023-04-28T01:47:42.588Z,52224.85
2023-04-28T01:50:14.446Z,52200.34
2023-04-28T01:52:46.167Z,52213.60
2023-04-28T01:55:16.172Z,52215.21
2023-04-28T01:57:48.075Z,52199.13
2023-04-28T02:00:21.246Z,52205.56
2023-04-28T02:02:55.857Z,52208.78
2023-04-28T02:05:27.539Z,52226.05
2023-04-28T02:07:59.024Z,52209.18
2023-04-28T02:10:30.683Z,52206.37
2023-04-28T02:13:00.444Z,52207.97
2023-04-28T02:15:31.939Z,52219.23
2023-04-28T02:18:03.403Z,52214.00
2023-04-28T02:20:35.370Z,52219.63
2023-04-28T02:23:06.767Z,52203.15
2023-04-28T02:25:38.316Z,52216.41
2023-04-28T02:28:09.966Z,52222.44
2023-04-28T02:30:41.519Z,52210.79
2023-04-28T02:33:12.874Z,52216.41
2023-04-28T02:35:44.862Z,52229.27
2023-04-28T02:38:16.422Z,52201.54
2023-04-28T02:40:47.943Z,52224.05
2023-04-28T02:43:19.753Z,52191.09
2023-04-28T02:45:51.338Z,52203.15
2023-04-28T02:48:22.863Z,52215.61
2023-04-28T02:50:54.415Z,52213.20
2023-04-28T02:53:25.934Z,52208.38
2023-04-28T02:55:57.304Z,52216.82
2023-04-28T02:58:29.084Z,52232.89
2023-04-28T03:00:58.916Z,52207.97
2023-04-28T03:03:30.705Z,52223.64
2023-04-28T03:06:02.344Z,52236.10
2023-04-28T03:08:34.005Z,52228.87
2023-04-28T03:11:03.959Z,52227.66
2023-04-28T03:13:36.949Z,52236.50
2023-04-28T03:16:10.251Z,52238.52
2023-04-28T03:18:41.880Z,52226.05
2023-04-28T03:21:13.487Z,52240.93
2023-04-28T03:23:45.103Z,52219.63
2023-04-28T03:26:17.050Z,52218.02
2023-04-28T03:28:47.759Z,52226.05
2023-04-28T03:31:19.156Z,52214.80
2023-04-28T03:33:49.152Z,52228.87
2023-04-28T03:36:21.194Z,52232.49
2023-04-28T03:38:52.558Z,52221.23
2023-04-28T03:41:22.666Z,52233.29
2023-04-28T03:44:14.866Z,52229.27
2023-04-28T03:46:51.420Z,52240.12
2023-04-28T03:49:22.851Z,52242.13
2023-04-28T03:51:54.503Z,52234.49
2023-04-28T03:54:25.950Z,52215.21
2023-04-28T03:56:57.990Z,52229.68
2023-04-28T03:59:29.377Z,52227.26
2023-04-28T04:02:01.253Z,52225.66
2023-04-28T04:04:33.249Z,52249.36
2023-04-28T04:07:04.961Z,52231.68
2023-04-28T04:09:36.869Z,52217.61
2023-04-28T04:12:10.166Z,52224.05
2023-04-28T04:14:42.072Z,52226.46
2023-04-28T04:17:14.572Z,52231.68
2023-04-28T04:19:47.181Z,52219.63
2023-04-28T04:22:18.565Z,52218.02
2023-04-28T04:24:50.010Z,52214.00
2023-04-28T04:27:21.440Z,52230.48
2023-04-28T04:29:52.795Z,52223.25
2023-04-28T04:32:24.310Z,52224.05
2023-04-28T04:34:55.701Z,52230.07
2023-04-28T04:37:27.697Z,52224.45
2023-04-28T04:40:04.936Z,52234.49
2023-04-28T04:42:40.750Z,52225.66
2023-04-28T04:45:15.321Z,52242.54
2023-04-28T04:47:46.779Z,52231.68
2023-04-28T04:50:19.589Z,52230.07
2023-04-28T04:52:51.337Z,52239.32
2023-04-28T04:55:23.351Z,52227.66
2023-04-28T04:57:56.886Z,52224.45
2023-04-28T05:00:45.221Z,52228.47
2023-04-28T05:03:17.605Z,52238.92
2023-04-28T05:05:49.271Z,52228.47
2023-04-28T05:08:37.303Z,52217.62
2023-04-28T05:11:07.657Z,52225.66
2023-04-28T05:13:40.789Z,52213.60
2023-04-28T05:16:12.504Z,52214.40
2023-04-28T05:19:07.311Z,52211.19
2023-04-28T05:21:38.742Z,52226.05
2023-04-28T05:24:10.749Z,52237.71
2023-04-28T05:26:42.273Z,52214.00
2023-04-28T05:29:14.722Z,52208.38
2023-04-28T05:31:44.595Z,52226.46
2023-04-28T05:34:16.632Z,52211.99
2023-04-28T05:36:48.623Z,52203.55
2023-04-28T05:39:20.571Z,52218.02
2023-04-28T05:41:50.628Z,52222.84
2023-04-28T05:44:22.264Z,52214.80
2023-04-28T05:46:54.237Z,52209.18
2023-04-28T05:49:29.304Z,52231.68
2023-04-28T05:52:01.432Z,52231.28
2023-04-28T05:54:34.622Z,52216.81
2023-04-28T05:57:06.304Z,52211.99
2023-04-28T05:59:37.938Z,52216.41
2023-04-28T06:02:09.627Z,52214.40
2023-04-28T06:04:44.828Z,52202.35
2023-04-28T06:07:16.589Z,52210.79
2023-04-28T06:09:48.131Z,52203.95
2023-04-28T06:12:20.021Z,52216.81
2023-04-28T06:14:53.365Z,52208.77
2023-04-28T06:17:25.235Z,52219.23
2023-04-28T06:19:57.246Z,52230.07
2023-04-28T06:22:29.162Z,52207.16
2023-04-28T06:24:59.376Z,52211.18
2023-04-28T06:27:37.898Z,52233.29
2023-04-28T06:30:14.788Z,52212.79
2023-04-28T06:32:46.570Z,52198.32
2023-04-28T06:35:17.282Z,52212.79
2023-04-28T06:37:48.959Z,52218.02
2023-04-28T06:40:19.075Z,52230.07
2023-04-28T06:42:56.565Z,52199.54
2023-04-28T06:45:34.961Z,52215.61
2023-04-28T06:48:04.975Z,52200.34
2023-04-28T06:50:37.055Z,52199.53
2023-04-28T06:53:11.747Z,52201.14
2023-04-28T06:55:43.427Z,52202.75
2023-04-28T06:58:13.552Z,52180.24
2023-04-28T07:00:45.248Z,52193.51
2023-04-28T07:03:15.406Z,52197.52
2023-04-28T07:05:47.173Z,52194.31
2023-04-28T07:08:18.673Z,52185.07
2023-04-28T07:10:50.304Z,52195.11
2023-04-28T07:13:20.096Z,52187.48
2023-04-28T07:15:52.043Z,52201.95
2023-04-28T07:18:23.721Z,52186.27
2023-04-28T07:20:53.737Z,52180.25
2023-04-28T07:23:25.232Z,52196.32
2023-04-28T07:25:56.621Z,52175.02
2023-04-28T07:28:28.111Z,52206.77
2023-04-28T07:30:59.679Z,52201.14
2023-04-28T07:33:31.498Z,52184.26
2023-04-28T07:36:01.382Z,52195.11
2023-04-28T07:38:33.222Z,52190.29
2023-04-28T07:41:07.582Z,52195.91
2023-04-28T07:43:41.723Z,52198.33
2023-04-28T07:46:13.338Z,52172.21
2023-04-28T07:48:43.087Z,52193.91
2023-04-28T07:51:14.455Z,52179.84
2023-04-28T07:53:45.986Z,52179.84
2023-04-28T07:56:17.466Z,52195.11
2023-04-28T07:58:49.044Z,52178.23
2023-04-28T08:01:20.413Z,52177.83
2023-04-28T08:03:51.912Z,52189.89
2023-04-28T08:06:23.618Z,52180.65
2023-04-28T08:08:56.099Z,52184.67
2023-04-28T08:11:27.905Z,52193.51
2023-04-28T08:14:03.337Z,52193.11
2023-04-28T08:16:38.665Z,52178.24
2023-04-28T08:19:10.364Z,52196.72
2023-04-28T08:21:41.963Z,52199.13
2023-04-28T08:24:13.315Z,52172.61
2023-04-28T08:26:44.764Z,52179.85
2023-04-28T08:29:16.174Z,52180.24
2023-04-28T08:31:47.673Z,52174.62
2023-04-28T08:34:19.983Z,52164.17
2023-04-28T08:36:51.712Z,52189.49
2023-04-28T08:39:24.004Z,52175.02
2023-04-28T08:41:55.581Z,52175.02
2023-04-28T08:44:27.266Z,52179.84
2023-04-28T08:46:59.989Z,52189.89
2023-04-28T08:49:36.267Z,52191.10
2023-04-28T08:52:10.740Z,52192.70
2023-04-28T08:54:43.001Z,52185.87
2023-04-28T08:57:14.729Z,52189.09
2023-04-28T08:59:44.709Z,52192.30
2023-04-28T09:02:16.221Z,52206.76
2023-04-28T09:04:48.531Z,52210.79
2023-04-28T09:07:20.097Z,52198.33
2023-04-28T09:09:50.412Z,52199.13
2023-04-28T09:12:24.589Z,52200.74
2023-04-28T09:14:56.097Z,52179.04
2023-04-28T09:17:28.144Z,52200.74
2023-04-28T09:19:59.913Z,52197.13
2023-04-28T09:22:30.860Z,52199.94
2023-04-28T09:25:14.349Z,52209.18
2023-04-28T09:27:45.868Z,52206.77
2023-04-28T09:30:17.571Z,52197.12
2023-04-28T09:32:47.691Z,52205.56
2023-04-28T09:35:19.343Z,52202.35
2023-04-28T09:37:51.622Z,52186.27
2023-04-28T09:40:23.355Z,52204.36
2023-04-28T09:42:54.845Z,52198.73
2023-04-28T09:45:29.234Z,52203.95
2023-04-28T09:48:12.721Z,52191.90
2023-04-28T09:50:44.525Z,52196.72
2023-04-28T09:53:15.313Z,52171.41
2023-04-28T09:55:47.342Z,52174.21
2023-04-28T09:58:19.426Z,52181.05
2023-04-28T10:00:52.976Z,52185.07
2023-04-28T10:03:29.139Z,52177.84
2023-04-28T10:06:01.563Z,52173.82
2023-04-28T10:08:33.827Z,52187.07
2023-04-28T10:11:05.148Z,52188.28
2023-04-28T10:13:37.515Z,52181.45
2023-04-28T10:16:09.945Z,52169.39
2023-04-28T10:18:41.920Z,52200.74
2023-04-28T10:21:14.099Z,52188.28
2023-04-28T10:24:17.841Z,52173.82
2023-04-28T10:27:10.447Z,52175.02
2023-04-28T10:29:42.016Z,52168.99
2023-04-28T10:32:24.426Z,52190.70
2023-04-28T10:34:56.202Z,52184.67
2023-04-28T10:37:39.762Z,52189.89
2023-04-28T10:40:35.070Z,52183.86
2023-04-28T10:43:06.571Z,52179.04
2023-04-28T10:46:02.542Z,52180.24
2023-04-28T10:48:55.636Z,52186.68
2023-04-28T10:51:33.897Z,52203.55
2023-04-28T10:54:19.649Z,52187.48
2023-04-28T10:57:19.780Z,52192.30
2023-04-28T10:59:54.914Z,52174.62
2023-04-28T11:02:44.786Z,52204.76
2023-04-28T11:05:19.310Z,52199.53
2023-04-28T11:08:34.302Z,52188.28
2023-04-28T11:11:22.772Z,52200.34
2023-04-28T11:13:55.081Z,52191.50
2023-04-28T11:16:27.914Z,52193.51
2023-04-28T11:19:06.024Z,52207.57
2023-04-28T11:21:37.549Z,52204.36
2023-04-28T11:24:14.133Z,52212.39
2023-04-28T11:26:46.119Z,52222.84
2023-04-28T11:29:17.660Z,52232.89
2023-04-28T11:31:53.867Z,52208.38
2023-04-28T11:34:25.677Z,52219.63
2023-04-28T11:36:55.514Z,52226.05
2023-04-28T11:39:30.992Z,52207.57
2023-04-28T11:42:03.823Z,52227.66
2023-04-28T11:44:35.334Z,52202.35
2023-04-28T11:47:06.037Z,52224.05
2023-04-28T11:49:45.542Z,52210.39
2023-04-28T11:52:17.289Z,52217.62
2023-04-28T11:54:54.073Z,52220.84
2023-04-28T11:57:25.730Z,52208.77
2023-04-28T11:59:55.582Z,52233.29
2023-04-28T12:02:30.751Z,52226.46
2023-04-28T12:05:09.334Z,52232.09
2023-04-28T12:07:45.845Z,52233.29
2023-04-28T12:10:20.044Z,52230.07
2023-04-28T12:12:53.420Z,52236.91
2023-04-28T12:15:25.611Z,52240.12
2023-04-28T12:17:57.734Z,52224.45
2023-04-28T12:20:39.313Z,52229.27
2023-04-28T12:23:09.687Z,52239.71
2023-04-28T12:25:48.600Z,52228.47
2023-04-28T12:28:20.094Z,52240.52
2023-04-28T12:30:51.814Z,52242.93
2023-04-28T12:33:25.736Z,52240.13
2023-04-28T12:35:57.395Z,52241.73
2023-04-28T12:38:29.228Z,52237.71
2023-04-28T12:40:59.174Z,52225.25
2023-04-28T12:43:31.029Z,52240.13
2023-04-28T12:46:04.352Z,52241.32
2023-04-28T12:48:35.939Z,52236.10
2023-04-28T12:51:09.905Z,52251.37
2023-04-28T12:53:41.548Z,52231.68
2023-04-28T12:56:12.990Z,52235.70
2023-04-28T12:58:44.483Z,52245.35
2023-04-28T13:01:16.461Z,52226.86
2023-04-28T13:03:49.006Z,52232.09
2023-04-28T13:06:21.400Z,52252.58
2023-04-28T13:08:52.967Z,52234.90
2023-04-28T13:11:28.459Z,52242.54
2023-04-28T13:14:00.149Z,52227.66
2023-04-28T13:16:32.167Z,52239.72
2023-04-28T13:19:04.003Z,52240.12
2023-04-28T13:21:36.646Z,52269.86
2023-04-28T13:24:10.552Z,52239.72
2023-04-28T13:26:44.480Z,52239.32
2023-04-28T13:29:18.990Z,52232.48
2023-04-28T13:31:50.675Z,52230.88
2023-04-28T13:34:20.573Z,52248.56
2023-04-28T13:36:54.424Z,52251.77
2023-04-28T13:39:26.393Z,52255.39
2023-04-28T13:41:58.179Z,52246.55
2023-04-28T13:44:28.116Z,52253.38
2023-04-28T13:46:59.673Z,52247.76
2023-04-28T13:49:31.690Z,52251.78
2023-04-28T13:52:04.048Z,52245.34
2023-04-28T13:54:35.865Z,52254.99
2023-04-28T13:57:07.742Z,52252.98
2023-04-28T13:59:39.607Z,52241.73
2023-04-28T14:02:11.965Z,52244.14
2023-04-28T14:04:48.832Z,52254.59
2023-04-28T14:07:21.333Z,52239.72
2023-04-28T14:09:54.202Z,52248.56
2023-04-28T14:12:25.970Z,52235.30
2023-04-28T14:14:57.959Z,52252.58
2023-04-28T14:17:30.060Z,52254.99
2023-04-28T14:20:01.987Z,52238.51
2023-04-28T14:22:55.346Z,52241.32
2023-04-28T14:25:27.784Z,52253.38
2023-04-28T14:27:59.296Z,52241.33
2023-04-28T14:30:31.222Z,52265.84
2023-04-28T14:33:02.866Z,52238.91
2023-04-28T14:35:34.986Z,52244.54
2023-04-28T14:38:06.545Z,52248.16
2023-04-28T14:40:38.361Z,52250.57
2023-04-28T14:43:08.179Z,52239.32
2023-04-28T14:45:40.827Z,52251.77
2023-04-28T14:48:13.600Z,52259.81
2023-04-28T14:50:46.404Z,52268.66
2023-04-28T14:53:17.922Z,52254.99
2023-04-28T14:55:50.079Z,52245.75
2023-04-28T14:58:21.878Z,52257.00
2023-04-28T15:00:53.491Z,52255.39
2023-04-28T15:03:25.135Z,52247.76
2023-04-28T15:05:55.547Z,52268.25
2023-04-28T15:08:28.254Z,52266.24
2023-04-28T15:11:01.646Z,52253.39
2023-04-28T15:13:33.251Z,52269.05
2023-04-28T15:16:06.322Z,52250.57
2023-04-28T15:18:37.834Z,52257.40
2023-04-28T15:21:09.934Z,52239.72
2023-04-28T15:23:41.811Z,52254.19
2023-04-28T15:26:13.375Z,52246.55
2023-04-28T15:28:44.686Z,52257.00
2023-04-28T15:31:16.446Z,52259.01
2023-04-28T15:33:48.278Z,52272.27
2023-04-28T15:36:18.843Z,52258.61
2023-04-28T15:38:52.157Z,52256.20
2023-04-28T15:41:23.590Z,52269.86
2023-04-28T15:43:56.104Z,52252.98
2023-04-28T15:46:27.495Z,52251.38
2023-04-28T15:48:57.606Z,52265.04
2023-04-28T15:51:28.957Z,52269.05
2023-04-28T15:54:00.696Z,52271.46
2023-04-28T15:56:31.209Z,52276.29
2023-04-28T15:59:03.865Z,52273.88
2023-04-28T16:01:35.632Z,52254.99
2023-04-28T16:04:07.691Z,52272.27
2023-04-28T16:06:39.432Z,52288.34
2023-04-28T16:09:11.213Z,52261.42
2023-04-28T16:11:42.680Z,52273.07
2023-04-28T16:14:15.939Z,52284.73
2023-04-28T16:16:48.094Z,52276.29
2023-04-28T16:19:19.754Z,52285.13
2023-04-28T16:21:51.336Z,52279.10
2023-04-28T16:24:22.697Z,52274.68
2023-04-28T16:26:54.607Z,52287.94
2023-04-28T16:29:26.728Z,52283.52
2023-04-28T16:31:58.569Z,52282.32
2023-04-28T16:34:30.118Z,52287.54
2023-04-28T16:37:02.866Z,52292.37
2023-04-28T16:39:34.834Z,52277.90
2023-04-28T16:42:06.367Z,52303.62
2023-04-28T16:44:36.722Z,52279.10
2023-04-28T16:47:08.775Z,52294.77
2023-04-28T16:49:40.156Z,52297.18
2023-04-28T16:52:11.890Z,52275.09
2023-04-28T16:54:43.634Z,52289.15
2023-04-28T16:57:15.537Z,52301.21
2023-04-28T16:59:47.338Z,52287.14
2023-04-28T17:02:18.858Z,52299.20
2023-04-28T17:04:50.408Z,52289.95
2023-04-28T17:07:24.083Z,52275.48
2023-04-28T17:09:57.229Z,52290.76
2023-04-28T17:12:27.208Z,52289.96
2023-04-28T17:14:59.141Z,52285.53
2023-04-28T17:17:31.109Z,52293.97
2023-04-28T17:20:02.748Z,52289.55
2023-04-28T17:22:35.858Z,52290.76
2023-04-28T17:25:09.904Z,52292.37
2023-04-28T17:27:41.464Z,52297.99
2023-04-28T17:30:14.773Z,52290.36
2023-04-28T17:32:46.257Z,52298.79
2023-04-28T17:35:17.881Z,52282.72
2023-04-28T17:37:49.650Z,52300.80
2023-04-28T17:40:24.293Z,52302.81
2023-04-28T17:42:57.545Z,52294.37
2023-04-28T17:45:29.431Z,52304.42
2023-04-28T17:48:00.994Z,52287.95
2023-04-28T17:50:32.476Z,52301.20
2023-04-28T17:53:04.326Z,52308.44
2023-04-28T17:55:36.431Z,52304.02
2023-04-28T17:58:07.966Z,52302.81
2023-04-28T18:00:39.398Z,52281.11
2023-04-28T18:03:10.891Z,52301.61
2023-04-28T18:05:42.400Z,52306.03
2023-04-28T18:08:14.280Z,52290.76
2023-04-28T18:10:45.644Z,52299.20
2023-04-28T18:13:17.156Z,52311.25
2023-04-28T18:15:49.254Z,52310.05
2023-04-28T18:18:20.982Z,52307.63
2023-04-28T18:20:51.696Z,52320.09
2023-04-28T18:23:30.707Z,52302.81
2023-04-28T18:26:02.492Z,52291.16
2023-04-28T18:28:34.421Z,52308.44
2023-04-28T18:31:07.411Z,52302.01
2023-04-28T18:33:39.280Z,52328.53
2023-04-28T18:36:10.747Z,52323.30
2023-04-28T18:38:42.428Z,52311.25
2023-04-28T18:41:17.880Z,52318.09
2023-04-28T18:43:49.300Z,52311.65
2023-04-28T18:46:21.002Z,52301.61
2023-04-28T18:48:50.793Z,52309.24
2023-04-28T18:51:22.792Z,52308.84
2023-04-28T18:53:52.591Z,52312.46
2023-04-28T18:56:25.193Z,52310.45
2023-04-28T18:58:57.197Z,52310.05
2023-04-28T19:01:28.682Z,52334.96
2023-04-28T19:04:00.568Z,52322.91
2023-04-28T19:06:32.113Z,52321.30
2023-04-28T19:09:03.614Z,52297.19
2023-04-28T19:11:35.529Z,52302.01
2023-04-28T19:14:07.532Z,52310.04
2023-04-28T19:16:39.109Z,52325.72
2023-04-28T19:19:09.790Z,52318.89
2023-04-28T19:21:44.293Z,52322.91
2023-04-28T19:24:15.877Z,52305.63
2023-04-28T19:26:48.097Z,52320.09
2023-04-28T19:29:20.320Z,52316.07
2023-04-28T19:31:51.813Z,52324.51
2023-04-28T19:34:23.706Z,52314.07
2023-04-28T19:36:56.118Z,52312.05
2023-04-28T19:39:29.306Z,52317.68
2023-04-28T19:42:00.855Z,52316.48
2023-04-28T19:44:33.381Z,52326.52
2023-04-28T19:47:07.682Z,52325.72
2023-04-28T19:49:39.066Z,52325.31
2023-04-28T19:52:10.774Z,52322.50
2023-04-28T19:54:43.632Z,52326.52
2023-04-28T19:57:15.132Z,52326.52
2023-04-28T19:59:46.469Z,52344.61
2023-04-28T20:02:17.963Z,52314.06
2023-04-28T20:04:49.057Z,52324.11
2023-04-28T20:07:20.706Z,52309.64
2023-04-28T20:09:53.122Z,52321.70
2023-04-28T20:12:24.674Z,52328.54
2023-04-28T20:14:56.364Z,52318.08
2023-04-28T20:17:28.020Z,52347.42
2023-04-28T20:19:57.904Z,52336.17
2023-04-28T20:22:29.698Z,52340.59
2023-04-28T20:25:00.985Z,52320.90
2023-04-28T20:27:32.520Z,52326.52
2023-04-28T20:30:04.075Z,52345.41
2023-04-28T20:32:35.667Z,52330.54
2023-04-28T20:35:07.734Z,52326.93
2023-04-28T20:37:39.973Z,52326.93
2023-04-28T20:40:13.607Z,52343.00
2023-04-28T20:42:45.018Z,52336.97
2023-04-28T20:45:16.570Z,52351.84
2023-04-28T20:47:48.131Z,52349.84
2023-04-28T20:50:19.980Z,52328.94
2023-04-28T20:52:51.454Z,52342.20
2023-04-28T20:55:23.348Z,52343.00
2023-04-28T20:57:54.726Z,52328.54
2023-04-28T21:00:26.116Z,52322.10
2023-04-28T21:02:58.038Z,52338.58
2023-04-28T21:05:29.702Z,52341.39
2023-04-28T21:08:01.130Z,52334.16
2023-04-28T21:10:32.753Z,52348.63
2023-04-28T21:13:04.398Z,52349.84
2023-04-28T21:15:34.244Z,52338.58
2023-04-28T21:18:05.775Z,52345.81
2023-04-28T21:20:37.664Z,52332.55
2023-04-28T21:23:10.358Z,52332.55
2023-04-28T21:25:42.276Z,52321.30
2023-04-28T21:28:13.728Z,52332.55
2023-04-28T21:30:45.728Z,52350.64
2023-04-28T21:33:17.320Z,52362.29
2023-04-28T21:35:48.722Z,52340.18
2023-04-28T21:38:20.293Z,52331.75
2023-04-28T21:40:52.133Z,52347.42
2023-04-28T21:43:24.337Z,52340.18
2023-04-28T21:45:56.106Z,52343.80
2023-04-28T21:48:26.012Z,52333.36
2023-04-28T21:50:57.644Z,52325.32
2023-04-28T21:53:29.255Z,52355.46
2023-04-28T21:56:00.700Z,52334.96
2023-04-28T21:58:32.386Z,52336.17
2023-04-28T22:01:03.866Z,52349.84
2023-04-28T22:03:36.602Z,52337.38
2023-04-28T22:06:09.374Z,52324.11
2023-04-28T22:08:40.860Z,52335.36
2023-04-28T22:11:12.751Z,52327.73
2023-04-28T22:13:42.509Z,52338.18
2023-04-28T22:16:13.983Z,52351.04
2023-04-28T22:18:43.999Z,52361.09
2023-04-28T22:21:15.655Z,52350.63
2023-04-28T22:23:47.105Z,52330.55
2023-04-28T22:26:32.380Z,52345.41
2023-04-28T22:29:03.791Z,52327.33
2023-04-28T22:31:35.583Z,52341.39
2023-04-28T22:34:10.149Z,52335.36
2023-04-28T22:36:41.759Z,52357.87
2023-04-28T22:39:13.177Z,52339.79
2023-04-28T22:41:44.680Z,52336.98
2023-04-28T22:44:16.031Z,52357.47
2023-04-28T22:46:47.701Z,52340.59
2023-04-28T22:49:24.884Z,52349.03
2023-04-28T22:51:56.274Z,52347.02
2023-04-28T22:54:27.674Z,52358.68
2023-04-28T22:56:59.478Z,52338.58
2023-04-28T22:59:31.030Z,52335.37
2023-04-28T23:02:03.375Z,52357.07
2023-04-28T23:04:35.160Z,52343.00
2023-04-28T23:07:07.545Z,52333.36
2023-04-28T23:09:38.982Z,52349.43
2023-04-28T23:12:10.688Z,52358.67
2023-04-28T23:14:40.381Z,52349.43
2023-04-28T23:17:11.974Z,52365.51
2023-04-28T23:19:43.514Z,52338.58
2023-04-28T23:22:14.980Z,52343.80
2023-04-28T23:24:46.581Z,52346.21
2023-04-28T23:27:17.997Z,52340.19
2023-04-28T23:29:49.716Z,52340.59
2023-04-28T23:32:21.436Z,52355.86
2023-04-28T23:34:53.071Z,52342.20
2023-04-28T23:37:25.093Z,52353.45
2023-04-28T23:39:56.546Z,52345.01
2023-04-28T23:42:29.466Z,52341.79
2023-04-28T23:45:01.778Z,52342.60
2023-04-28T23:47:33.345Z,52334.56
2023-04-28T23:50:05.131Z,52356.66
2023-04-28T23:52:36.679Z,52345.41
2023-04-28T23:55:10.679Z,52338.58
2023-04-28T23:57:42.217Z,52353.05
